createdAt,value
2019-06-27T00:01:19.096Z,20.60
2019-06-27T00:04:03.861Z,20.60
2019-06-27T00:06:48.820Z,20.50
2019-06-27T00:09:33.785Z,20.50
2019-06-27T00:12:19.293Z,20.40
2019-06-27T00:15:04.126Z,20.40
2019-06-27T00:17:48.857Z,20.50
2019-06-27T00:20:33.663Z,20.50
2019-06-27T00:23:18.485Z,20.50
2019-06-27T00:26:03.393Z,20.40
2019-06-27T00:28:48.399Z,20.40
2019-06-27T00:31:33.521Z,20.40
2019-06-27T00:34:18.303Z,20.40
2019-06-27T00:37:03.270Z,20.30
2019-06-27T00:39:47.932Z,20.30
2019-06-27T00:42:32.804Z,20.30
2019-06-27T00:45:17.851Z,20.30
2019-06-27T00:48:02.760Z,20.30
2019-06-27T00:50:47.467Z,20.30
2019-06-27T00:53:32.268Z,20.30
2019-06-27T00:56:17.424Z,20.30
2019-06-27T00:59:02.201Z,20.30
2019-06-27T01:01:47.133Z,20.30
2019-06-27T01:04:32.046Z,20.30
2019-06-27T01:07:19.496Z,20.20
2019-06-27T01:10:05.547Z,20.20
2019-06-27T01:12:50.271Z,20.20
2019-06-27T01:15:35.084Z,20.20
2019-06-27T01:18:19.961Z,20.20
2019-06-27T01:21:04.864Z,20.10
2019-06-27T01:23:49.661Z,19.90
2019-06-27T01:26:34.503Z,19.80
2019-06-27T01:29:19.382Z,19.70
2019-06-27T01:32:04.272Z,19.60
2019-06-27T01:34:49.179Z,19.60
2019-06-27T01:37:34.038Z,19.60
2019-06-27T01:40:19.240Z,19.60
2019-06-27T01:43:03.745Z,19.50
2019-06-27T01:45:56.249Z,19.50
2019-06-27T01:48:41.080Z,19.50
2019-06-27T01:51:25.803Z,19.40
2019-06-27T01:54:10.715Z,19.40
2019-06-27T01:56:55.708Z,19.30
2019-06-27T01:59:40.490Z,19.20
2019-06-27T02:02:25.492Z,19.30
2019-06-27T02:05:10.744Z,19.30
2019-06-27T02:07:55.436Z,19.30
2019-06-27T02:10:40.797Z,19.30
2019-06-27T02:13:25.721Z,19.30
2019-06-27T02:16:10.514Z,19.30
2019-06-27T02:18:55.422Z,19.30
2019-06-27T02:21:40.405Z,19.30
2019-06-27T02:24:25.288Z,19.20
2019-06-27T02:27:10.279Z,19.20
2019-06-27T02:29:55.087Z,19.20
2019-06-27T02:32:40.750Z,19.20
2019-06-27T02:35:25.296Z,19.20
2019-06-27T02:38:10.133Z,19.10
2019-06-27T02:40:58.511Z,19.10
2019-06-27T02:43:41.562Z,19.10
2019-06-27T02:46:26.607Z,19.00
2019-06-27T02:49:11.437Z,19.00
2019-06-27T02:51:56.238Z,19.00
2019-06-27T02:54:41.011Z,19.00
2019-06-27T02:57:26.109Z,18.90
2019-06-27T03:00:10.870Z,18.90
2019-06-27T03:02:55.988Z,18.90
2019-06-27T03:05:40.936Z,18.90
2019-06-27T03:08:25.872Z,18.80
2019-06-27T03:11:10.959Z,18.80
2019-06-27T03:13:55.744Z,18.80
2019-06-27T03:16:40.665Z,18.80
2019-06-27T03:19:25.290Z,18.80
2019-06-27T03:22:10.160Z,18.70
2019-06-27T03:24:54.994Z,18.70
2019-06-27T03:27:39.740Z,18.60
2019-06-27T03:30:24.695Z,18.50
2019-06-27T03:33:09.573Z,18.50
2019-06-27T03:35:54.649Z,18.50
2019-06-27T03:38:39.444Z,18.60
2019-06-27T03:41:24.399Z,18.60
2019-06-27T03:44:09.239Z,18.60
2019-06-27T03:46:54.017Z,18.60
2019-06-27T03:49:38.770Z,18.60
2019-06-27T03:52:23.626Z,18.60
2019-06-27T03:55:08.396Z,18.50
2019-06-27T03:57:53.183Z,18.50
2019-06-27T04:00:38.237Z,18.60
2019-06-27T04:03:23.444Z,18.60
2019-06-27T04:06:08.095Z,18.70
2019-06-27T04:08:52.961Z,18.80
2019-06-27T04:11:37.950Z,18.80
2019-06-27T04:14:22.610Z,18.80
2019-06-27T04:17:07.487Z,18.90
2019-06-27T04:19:52.402Z,18.90
2019-06-27T04:22:37.300Z,18.90
2019-06-27T04:25:22.561Z,18.90
2019-06-27T04:28:07.405Z,18.90
2019-06-27T04:30:52.417Z,19.00
2019-06-27T04:33:37.142Z,19.00
2019-06-27T04:36:22.016Z,19.00
2019-06-27T04:39:06.746Z,18.90
2019-06-27T04:41:51.700Z,18.90
2019-06-27T04:44:36.384Z,18.90
2019-06-27T04:47:21.187Z,19.00
2019-06-27T04:50:06.525Z,19.00
2019-06-27T04:52:51.145Z,19.00
2019-06-27T04:55:36.244Z,19.00
2019-06-27T04:58:20.905Z,19.00
2019-06-27T05:01:05.779Z,19.00
2019-06-27T05:03:50.586Z,19.10
2019-06-27T05:06:35.435Z,19.10
2019-06-27T05:09:20.052Z,19.10
2019-06-27T05:12:04.957Z,19.20
2019-06-27T05:14:50.118Z,19.00
2019-06-27T05:17:34.920Z,18.90
2019-06-27T05:20:19.790Z,18.90
2019-06-27T05:23:04.608Z,18.90
2019-06-27T05:25:49.309Z,18.90
2019-06-27T05:28:34.113Z,19.00
2019-06-27T05:31:18.931Z,19.10
2019-06-27T05:34:03.512Z,19.00
2019-06-27T05:36:48.226Z,19.00
2019-06-27T05:39:33.011Z,19.00
2019-06-27T05:42:17.924Z,19.00
2019-06-27T05:45:04.672Z,19.10
2019-06-27T05:47:49.683Z,19.10
2019-06-27T05:50:34.425Z,19.00
2019-06-27T05:53:19.284Z,19.00
2019-06-27T05:56:04.258Z,19.10
2019-06-27T05:58:51.864Z,19.30
2019-06-27T06:01:35.929Z,19.40
2019-06-27T06:04:23.985Z,19.50
2019-06-27T06:07:07.652Z,19.50
2019-06-27T06:09:52.610Z,19.50
2019-06-27T06:12:37.538Z,19.50
2019-06-27T06:15:22.193Z,19.40
2019-06-27T06:18:07.012Z,19.40
2019-06-27T06:20:51.877Z,19.40
2019-06-27T06:23:36.894Z,19.40
2019-06-27T06:26:21.778Z,19.40
2019-06-27T06:29:06.719Z,19.40
2019-06-27T06:31:51.572Z,19.40
2019-06-27T06:34:36.432Z,19.40
2019-06-27T06:37:21.095Z,19.30
2019-06-27T06:40:06.598Z,19.20
2019-06-27T06:42:51.516Z,19.10
2019-06-27T06:45:36.241Z,19.00
2019-06-27T06:48:21.359Z,19.00
2019-06-27T06:51:06.277Z,19.00
2019-06-27T06:53:51.155Z,19.10
2019-06-27T06:56:36.037Z,19.20
2019-06-27T06:59:20.585Z,19.30
2019-06-27T07:02:05.301Z,19.30
2019-06-27T07:04:50.156Z,19.40
2019-06-27T07:07:35.074Z,19.50
2019-06-27T07:10:19.932Z,19.70
2019-06-27T07:13:04.950Z,19.80
2019-06-27T07:15:49.809Z,19.90
2019-06-27T07:18:34.786Z,20.00
2019-06-27T07:21:19.636Z,20.10
2019-06-27T07:24:04.428Z,20.20
2019-06-27T07:26:49.166Z,20.30
2019-06-27T07:29:34.027Z,20.40
2019-06-27T07:32:18.715Z,20.50
2019-06-27T07:35:04.965Z,20.60
2019-06-27T07:37:50.001Z,20.70
2019-06-27T07:40:34.872Z,20.70
2019-06-27T07:43:19.808Z,20.80
2019-06-27T07:46:04.586Z,20.80
2019-06-27T07:48:49.277Z,20.80
2019-06-27T07:51:34.224Z,20.80
2019-06-27T07:54:19.101Z,20.70
2019-06-27T07:57:04.065Z,20.60
2019-06-27T07:59:48.843Z,20.70
2019-06-27T08:02:33.896Z,20.90
2019-06-27T08:05:19.173Z,20.90
2019-06-27T08:08:04.080Z,21.00
2019-06-27T08:10:48.783Z,21.00
2019-06-27T08:13:33.780Z,20.90
2019-06-27T08:16:18.542Z,20.90
2019-06-27T08:19:03.439Z,20.90
2019-06-27T08:21:48.323Z,20.90
2019-06-27T08:24:34.485Z,20.80
2019-06-27T08:27:19.685Z,20.60
2019-06-27T08:30:08.392Z,20.50
2019-06-27T08:32:53.498Z,20.40
2019-06-27T08:35:38.689Z,20.40
2019-06-27T08:38:23.454Z,20.50
2019-06-27T08:41:08.462Z,20.60
2019-06-27T08:43:53.359Z,20.80
2019-06-27T08:46:38.156Z,20.90
2019-06-27T08:49:22.933Z,20.90
2019-06-27T08:52:07.941Z,21.00
2019-06-27T08:54:53.324Z,21.00
2019-06-27T08:57:38.142Z,21.00
2019-06-27T09:00:23.292Z,21.10
2019-06-27T09:03:08.182Z,21.10
2019-06-27T09:05:53.228Z,21.10
2019-06-27T09:08:37.831Z,21.10
2019-06-27T09:11:22.694Z,21.10
2019-06-27T09:14:07.419Z,21.20
2019-06-27T09:16:52.273Z,21.30
2019-06-27T09:19:37.296Z,21.30
2019-06-27T09:22:22.164Z,21.30
2019-06-27T09:25:07.907Z,21.30
2019-06-27T09:27:53.134Z,21.50
2019-06-27T09:30:37.823Z,21.60
2019-06-27T09:33:22.618Z,21.70
2019-06-27T09:36:07.486Z,21.70
2019-06-27T09:38:52.458Z,21.70
2019-06-27T09:41:37.195Z,21.70
2019-06-27T09:44:22.233Z,21.70
2019-06-27T09:47:07.106Z,21.80
2019-06-27T09:49:52.147Z,21.80
2019-06-27T09:52:36.899Z,21.80
2019-06-27T09:55:22.158Z,21.90
2019-06-27T09:58:06.728Z,22.00
2019-06-27T10:00:51.641Z,22.10
2019-06-27T10:03:36.437Z,22.10
2019-06-27T10:06:21.581Z,22.10
2019-06-27T10:09:06.537Z,22.10
2019-06-27T10:11:53.393Z,22.10
2019-06-27T10:14:37.766Z,22.10
2019-06-27T10:17:22.565Z,22.10
2019-06-27T10:20:09.794Z,22.10
2019-06-27T10:22:54.801Z,22.20
2019-06-27T10:25:39.699Z,22.30
2019-06-27T10:28:24.733Z,22.40
2019-06-27T10:31:09.469Z,22.50
2019-06-27T10:33:54.323Z,22.80
2019-06-27T10:36:39.355Z,22.90
2019-06-27T10:39:24.308Z,23.00
2019-06-27T10:42:09.195Z,23.10
2019-06-27T10:44:54.019Z,23.30
2019-06-27T10:47:39.048Z,23.50
2019-06-27T10:50:23.853Z,23.70
2019-06-27T10:53:08.963Z,23.90
2019-06-27T10:55:53.693Z,24.10
2019-06-27T10:58:38.536Z,24.40
2019-06-27T11:01:23.315Z,24.80
2019-06-27T11:04:08.202Z,25.00
2019-06-27T11:06:53.081Z,25.10
2019-06-27T11:09:37.811Z,25.10
2019-06-27T11:12:22.731Z,25.10
2019-06-27T11:15:08.399Z,25.00
2019-06-27T11:17:53.251Z,25.20
2019-06-27T11:20:37.945Z,25.30
2019-06-27T11:23:22.841Z,25.40
2019-06-27T11:26:09.564Z,25.50
2019-06-27T11:28:54.542Z,25.50
2019-06-27T11:31:39.547Z,25.90
2019-06-27T11:34:24.285Z,26.50
2019-06-27T11:37:09.430Z,27.20
2019-06-27T11:39:54.185Z,27.70
2019-06-27T11:42:39.250Z,27.90
2019-06-27T11:45:24.161Z,28.10
2019-06-27T11:48:08.915Z,28.40
2019-06-27T11:50:53.676Z,28.70
2019-06-27T11:53:38.633Z,31.60
2019-06-27T11:56:23.707Z,31.80
2019-06-27T11:59:08.673Z,32.00
2019-06-27T12:01:53.842Z,31.50
2019-06-27T12:04:38.771Z,30.70
2019-06-27T12:07:23.674Z,30.00
2019-06-27T12:10:08.939Z,32.00
2019-06-27T12:12:53.524Z,36.20
2019-06-27T12:15:38.442Z,37.80
2019-06-27T12:18:23.355Z,37.60
2019-06-27T12:21:08.349Z,36.80
2019-06-27T12:23:53.168Z,37.00
2019-06-27T12:26:38.167Z,36.10
2019-06-27T12:29:23.022Z,35.10
2019-06-27T12:32:07.953Z,35.40
2019-06-27T12:34:52.710Z,34.80
2019-06-27T12:37:39.817Z,37.10
2019-06-27T12:40:24.577Z,39.40
2019-06-27T12:43:09.662Z,39.60
2019-06-27T12:45:54.494Z,41.70
2019-06-27T12:48:39.262Z,41.00
2019-06-27T12:51:24.122Z,40.80
2019-06-27T12:54:08.925Z,40.70
2019-06-27T12:56:53.864Z,42.00
2019-06-27T12:59:38.786Z,43.00
2019-06-27T13:02:23.711Z,41.30
2019-06-27T13:05:08.746Z,39.10
2019-06-27T13:07:53.503Z,37.20
2019-06-27T13:10:38.372Z,39.30
2019-06-27T13:13:23.160Z,42.70
2019-06-27T13:16:07.983Z,45.40
2019-06-27T13:18:52.886Z,47.50
2019-06-27T13:21:37.845Z,49.10
2019-06-27T13:24:22.618Z,47.50
2019-06-27T13:27:07.390Z,44.90
2019-06-27T13:29:52.347Z,45.00
2019-06-27T13:32:37.580Z,45.40
2019-06-27T13:35:22.745Z,44.80
2019-06-27T13:38:07.641Z,42.70
2019-06-27T13:40:52.426Z,40.50
2019-06-27T13:43:37.248Z,41.30
2019-06-27T13:46:22.183Z,42.70
2019-06-27T13:49:06.979Z,40.70
2019-06-27T13:51:51.802Z,38.30
2019-06-27T13:54:36.704Z,36.20
2019-06-27T13:57:21.568Z,34.40
2019-06-27T14:00:07.203Z,33.70
2019-06-27T14:02:51.848Z,37.00
2019-06-27T14:05:36.811Z,38.20
2019-06-27T14:08:21.643Z,36.70
2019-06-27T14:11:06.451Z,35.50
2019-06-27T14:13:51.441Z,34.20
2019-06-27T14:16:36.613Z,33.20
2019-06-27T14:19:21.689Z,32.60
2019-06-27T14:22:06.468Z,32.00
2019-06-27T14:24:51.480Z,31.30
2019-06-27T14:27:36.290Z,30.60
2019-06-27T14:30:21.646Z,29.90
2019-06-27T14:33:06.467Z,29.40
2019-06-27T14:35:51.223Z,28.90
2019-06-27T14:38:36.113Z,28.60
2019-06-27T14:41:21.059Z,28.30
2019-06-27T14:44:06.217Z,27.90
2019-06-27T14:46:51.005Z,27.70
2019-06-27T14:49:35.980Z,27.50
2019-06-27T14:52:20.754Z,27.40
2019-06-27T14:55:06.591Z,27.20
2019-06-27T14:57:51.289Z,26.90
2019-06-27T15:00:36.190Z,26.60
2019-06-27T15:03:21.151Z,26.50
2019-06-27T15:06:06.296Z,26.50
2019-06-27T15:08:51.252Z,26.30
2019-06-27T15:11:36.115Z,26.10
2019-06-27T15:14:20.996Z,25.80
2019-06-27T15:17:05.732Z,25.60
2019-06-27T15:19:50.541Z,25.40
2019-06-27T15:22:35.349Z,25.30
2019-06-27T15:25:20.417Z,25.30
2019-06-27T15:28:05.226Z,25.20
2019-06-27T15:30:50.121Z,25.10
2019-06-27T15:33:35.107Z,25.00
2019-06-27T15:36:19.948Z,25.10
2019-06-27T15:39:05.236Z,25.20
2019-06-27T15:41:50.093Z,25.20
2019-06-27T15:44:35.218Z,25.10
2019-06-27T15:47:19.836Z,24.90
2019-06-27T15:50:05.666Z,24.90
2019-06-27T15:52:50.416Z,24.90
2019-06-27T15:55:35.274Z,24.90
2019-06-27T15:58:20.410Z,24.80
2019-06-27T16:01:05.265Z,24.70
2019-06-27T16:03:50.175Z,24.70
2019-06-27T16:06:34.915Z,24.60
2019-06-27T16:09:19.754Z,24.50
2019-06-27T16:12:04.648Z,24.40
2019-06-27T16:14:49.505Z,24.30
2019-06-27T16:17:34.512Z,24.30
2019-06-27T16:20:19.725Z,24.20
2019-06-27T16:23:04.867Z,24.20
2019-06-27T16:25:49.876Z,24.10
2019-06-27T16:28:34.602Z,24.20
2019-06-27T16:31:19.376Z,24.20
2019-06-27T16:34:04.615Z,24.30
2019-06-27T16:36:49.904Z,24.20
2019-06-27T16:39:38.018Z,24.20
2019-06-27T16:42:21.829Z,24.20
2019-06-27T16:45:08.644Z,24.20
2019-06-27T16:47:53.590Z,24.20
2019-06-27T16:50:38.619Z,24.20
2019-06-27T16:53:23.486Z,24.10
2019-06-27T16:56:08.731Z,24.00
2019-06-27T16:58:53.684Z,23.90
2019-06-27T17:01:38.636Z,24.00
2019-06-27T17:04:23.481Z,24.00
2019-06-27T17:07:08.349Z,24.00
2019-06-27T17:09:53.225Z,23.90
2019-06-27T17:12:38.160Z,23.80
2019-06-27T17:15:25.644Z,23.80
2019-06-27T17:18:10.145Z,23.70
2019-06-27T17:20:58.060Z,23.70
2019-06-27T17:23:43.092Z,23.70
2019-06-27T17:26:31.104Z,23.70
2019-06-27T17:29:16.341Z,23.70
2019-06-27T17:32:01.274Z,23.70
2019-06-27T17:34:47.057Z,23.70
2019-06-27T17:37:32.161Z,23.60
2019-06-27T17:40:17.698Z,23.60
2019-06-27T17:43:04.013Z,23.60
2019-06-27T17:45:49.538Z,23.60
2019-06-27T17:48:34.178Z,23.50
2019-06-27T17:51:19.059Z,23.50
2019-06-27T17:54:04.240Z,23.40
2019-06-27T17:56:49.518Z,23.30
2019-06-27T17:59:34.327Z,23.30
2019-06-27T18:02:19.049Z,23.10
2019-06-27T18:05:05.798Z,23.00
2019-06-27T18:07:53.312Z,22.90
2019-06-27T18:10:38.059Z,22.80
2019-06-27T18:13:24.186Z,22.70
2019-06-27T18:16:10.315Z,22.60
2019-06-27T18:18:55.658Z,22.60
2019-06-27T18:21:41.641Z,22.50
2019-06-27T18:24:26.846Z,22.40
2019-06-27T18:27:11.596Z,22.30
2019-06-27T18:29:56.591Z,22.20
2019-06-27T18:32:41.472Z,22.20
2019-06-27T18:35:26.427Z,22.20
2019-06-27T18:38:11.407Z,22.10
2019-06-27T18:40:56.992Z,22.10
2019-06-27T18:43:41.914Z,22.10
2019-06-27T18:46:27.110Z,22.10
2019-06-27T18:49:11.882Z,22.10
2019-06-27T18:51:56.822Z,22.10
2019-06-27T18:54:41.896Z,22.10
2019-06-27T18:57:27.611Z,22.20
2019-06-27T19:00:13.235Z,22.10
2019-06-27T19:02:59.563Z,22.00
2019-06-27T19:05:44.464Z,21.90
2019-06-27T19:08:29.420Z,21.90
2019-06-27T19:11:14.380Z,21.80
2019-06-27T19:13:59.156Z,21.80
2019-06-27T19:16:44.402Z,21.80
2019-06-27T19:19:37.059Z,21.60
2019-06-27T19:22:41.082Z,21.60
2019-06-27T19:25:28.082Z,21.60
2019-06-27T19:28:13.808Z,21.40
2019-06-27T19:30:58.936Z,21.30
2019-06-27T19:33:43.920Z,21.20
2019-06-27T19:36:28.623Z,21.10
2019-06-27T19:39:13.896Z,21.00
2019-06-27T19:41:58.861Z,21.00
2019-06-27T19:44:43.806Z,21.00
2019-06-27T19:47:29.223Z,21.00
2019-06-27T19:50:14.657Z,20.90
2019-06-27T19:52:59.610Z,20.80
2019-06-27T19:55:44.999Z,20.80
2019-06-27T19:58:30.268Z,20.70
2019-06-27T20:01:15.203Z,20.70
2019-06-27T20:04:00.136Z,20.70
2019-06-27T20:06:45.753Z,20.70
2019-06-27T20:09:31.427Z,20.60
2019-06-27T20:12:16.948Z,20.50
2019-06-27T20:15:02.445Z,20.50
2019-06-27T20:17:47.374Z,20.60
2019-06-27T20:20:32.372Z,20.60
2019-06-27T20:23:17.117Z,20.50
2019-06-27T20:26:03.922Z,20.50
2019-06-27T20:28:48.814Z,20.60
2019-06-27T20:31:33.852Z,20.60
2019-06-27T20:34:18.700Z,20.50
2019-06-27T20:37:03.399Z,20.50
2019-06-27T20:39:48.493Z,20.40
2019-06-27T20:42:33.377Z,20.40
2019-06-27T20:45:18.377Z,20.40
2019-06-27T20:48:03.075Z,20.40
2019-06-27T20:50:47.875Z,20.50
2019-06-27T20:53:32.759Z,20.50
2019-06-27T20:56:17.709Z,20.50
2019-06-27T20:59:02.728Z,20.50
2019-06-27T21:01:47.504Z,20.50
2019-06-27T21:04:32.419Z,20.50
2019-06-27T21:07:17.343Z,20.40
2019-06-27T21:10:04.485Z,20.40
2019-06-27T21:12:49.161Z,20.40
2019-06-27T21:15:33.983Z,20.40
2019-06-27T21:18:18.632Z,20.30
2019-06-27T21:21:03.661Z,20.30
2019-06-27T21:23:48.931Z,20.30
2019-06-27T21:26:34.432Z,20.30
2019-06-27T21:29:19.467Z,20.30
2019-06-27T21:32:04.287Z,20.30
2019-06-27T21:34:49.182Z,20.30
2019-06-27T21:37:33.996Z,20.20
2019-06-27T21:40:19.178Z,20.20
2019-06-27T21:43:04.525Z,20.20
2019-06-27T21:45:49.248Z,20.20
2019-06-27T21:48:34.269Z,20.20
2019-06-27T21:51:19.167Z,20.20
2019-06-27T21:54:04.216Z,20.20
2019-06-27T21:56:48.992Z,20.20
2019-06-27T21:59:33.630Z,20.10
2019-06-27T22:02:19.098Z,20.10
2019-06-27T22:05:05.389Z,20.00
2019-06-27T22:07:53.437Z,19.90
2019-06-27T22:10:37.205Z,20.00
2019-06-27T22:13:22.076Z,20.00
2019-06-27T22:16:06.828Z,20.00
2019-06-27T22:18:51.714Z,20.00
2019-06-27T22:21:36.887Z,20.00
2019-06-27T22:24:21.621Z,20.00
2019-06-27T22:27:06.549Z,20.00
2019-06-27T22:29:51.328Z,20.00
2019-06-27T22:32:36.381Z,20.00
2019-06-27T22:35:21.211Z,19.90
2019-06-27T22:38:24.522Z,19.90
2019-06-27T22:41:27.929Z,19.80
2019-06-27T22:44:31.161Z,19.80
2019-06-27T22:47:34.642Z,19.80
2019-06-27T22:50:28.067Z,19.80
2019-06-27T22:53:14.377Z,19.80
2019-06-27T22:55:59.100Z,19.80
2019-06-27T22:58:44.005Z,19.80
2019-06-27T23:01:29.185Z,19.70
2019-06-27T23:04:13.834Z,19.70
2019-06-27T23:06:58.785Z,19.80
2019-06-27T23:09:56.609Z,19.80
2019-06-27T23:12:30.665Z,19.80
2019-06-27T23:15:16.158Z,19.70
2019-06-27T23:18:01.091Z,19.70
2019-06-27T23:20:46.057Z,19.70
2019-06-27T23:23:30.846Z,19.70
2019-06-27T23:26:15.841Z,19.70
2019-06-27T23:29:00.634Z,19.60
2019-06-27T23:31:45.507Z,19.70
2019-06-27T23:34:30.503Z,19.70
2019-06-27T23:37:15.554Z,19.60
2019-06-27T23:40:13.363Z,19.60
2019-06-27T23:42:47.342Z,19.50
2019-06-27T23:45:32.350Z,19.60
2019-06-27T23:48:17.035Z,19.60
2019-06-27T23:51:01.924Z,19.60
2019-06-27T23:53:46.830Z,19.60
2019-06-27T23:56:31.612Z,19.60
2019-06-27T23:59:16.682Z,19.40
